sensor_id;sensor_type;location;lat;lon;timestamp;temperature;humidity
10885;DHT22;5495;53.252;10.390;2022-12-18T00:01:35;-6.30;99.90
10885;DHT22;5495;53.252;10.390;2022-12-18T00:04:21;-6.40;99.90
10885;DHT22;5495;53.252;10.390;2022-12-18T00:06:53;-6.40;99.90
10885;DHT22;5495;53.252;10.390;2022-12-18T00:09:22;-6.40;99.90
10885;DHT22;5495;53.252;10.390;2022-12-18T00:11:51;-6.40;99.90
10885;DHT22;5495;53.252;10.390;2022-12-18T00:14:25;-6.40;99.90
10885;DHT22;5495;53.252;10.390;2022-12-18T00:16:52;-6.40;99.90
10885;DHT22;5495;53.252;10.390;2022-12-18T00:19:41;-6.40;99.90
10885;DHT22;5495;53.252;10.390;2022-12-18T00:22:08;-6.40;99.90
10885;DHT22;5495;53.252;10.390;2022-12-18T00:24:40;-6.40;99.90
10885;DHT22;5495;53.252;10.390;2022-12-18T00:27:18;-6.10;99.90
10885;DHT22;5495;53.252;10.390;2022-12-18T00:29:52;-6.50;99.90
10885;DHT22;5495;53.252;10.390;2022-12-18T00:32:24;-6.70;99.90
10885;DHT22;5495;53.252;10.390;2022-12-18T00:34:51;-6.00;99.90
10885;DHT22;5495;53.252;10.390;2022-12-18T00:37:27;-6.70;99.90
10885;DHT22;5495;53.252;10.390;2022-12-18T00:39:55;-6.70;99.90
10885;DHT22;5495;53.252;10.390;2022-12-18T00:42:27;-6.70;99.90
10885;DHT22;5495;53.252;10.390;2022-12-18T00:45:12;-6.70;99.90
10885;DHT22;5495;53.252;10.390;2022-12-18T00:47:44;-6.80;99.90
10885;DHT22;5495;53.252;10.390;2022-12-18T00:50:24;-6.70;99.90
10885;DHT22;5495;53.252;10.390;2022-12-18T00:52:52;-6.70;99.90
10885;DHT22;5495;53.252;10.390;2022-12-18T00:55:19;-6.80;99.90
10885;DHT22;5495;53.252;10.390;2022-12-18T00:57:45;-6.50;99.90
10885;DHT22;5495;53.252;10.390;2022-12-18T01:00:14;-6.70;99.90
10885;DHT22;5495;53.252;10.390;2022-12-18T01:02:58;-6.70;99.90
10885;DHT22;5495;53.252;10.390;2022-12-18T01:05:26;-7.10;99.90
10885;DHT22;5495;53.252;10.390;2022-12-18T01:07:55;-6.70;99.90
10885;DHT22;5495;53.252;10.390;2022-12-18T01:10:22;-6.80;99.90
10885;DHT22;5495;53.252;10.390;2022-12-18T01:12:52;-7.10;99.90
10885;DHT22;5495;53.252;10.390;2022-12-18T01:15:21;-7.10;99.90
10885;DHT22;5495;53.252;10.390;2022-12-18T01:17:57;-6.70;99.90
10885;DHT22;5495;53.252;10.390;2022-12-18T01:20:34;-6.80;99.90
10885;DHT22;5495;53.252;10.390;2022-12-18T01:23:01;-6.80;99.90
10885;DHT22;5495;53.252;10.390;2022-12-18T01:25:30;-6.80;99.90
10885;DHT22;5495;53.252;10.390;2022-12-18T01:27:57;-6.80;99.90
10885;DHT22;5495;53.252;10.390;2022-12-18T01:30:24;-6.90;99.90
10885;DHT22;5495;53.252;10.390;2022-12-18T01:32:52;-7.60;99.90
10885;DHT22;5495;53.252;10.390;2022-12-18T01:35:22;-6.80;99.90
10885;DHT22;5495;53.252;10.390;2022-12-18T01:37:50;-6.20;99.90
10885;DHT22;5495;53.252;10.390;2022-12-18T01:40:20;-6.80;99.90
10885;DHT22;5495;53.252;10.390;2022-12-18T01:42:51;-6.80;99.90
10885;DHT22;5495;53.252;10.390;2022-12-18T01:45:26;-6.80;99.90
10885;DHT22;5495;53.252;10.390;2022-12-18T01:47:59;-6.80;99.90
10885;DHT22;5495;53.252;10.390;2022-12-18T01:50:35;-6.20;99.90
10885;DHT22;5495;53.252;10.390;2022-12-18T01:53:06;-6.80;99.90
10885;DHT22;5495;53.252;10.390;2022-12-18T01:55:37;-6.80;99.90
10885;DHT22;5495;53.252;10.390;2022-12-18T02:00:55;-7.50;99.90
10885;DHT22;5495;53.252;10.390;2022-12-18T02:03:25;-6.80;99.90
10885;DHT22;5495;53.252;10.390;2022-12-18T02:06:03;-7.40;99.90
10885;DHT22;5495;53.252;10.390;2022-12-18T02:08:38;-7.00;99.90
10885;DHT22;5495;53.252;10.390;2022-12-18T02:11:10;-7.00;99.90
10885;DHT22;5495;53.252;10.390;2022-12-18T02:13:46;-7.00;99.90
10885;DHT22;5495;53.252;10.390;2022-12-18T02:16:23;-7.00;99.90
10885;DHT22;5495;53.252;10.390;2022-12-18T02:18:55;-7.00;99.90
10885;DHT22;5495;53.252;10.390;2022-12-18T02:21:30;-7.50;99.90
10885;DHT22;5495;53.252;10.390;2022-12-18T02:24:11;-7.00;99.90
10885;DHT22;5495;53.252;10.390;2022-12-18T02:26:44;-7.10;99.90
10885;DHT22;5495;53.252;10.390;2022-12-18T02:29:17;-7.70;99.90
10885;DHT22;5495;53.252;10.390;2022-12-18T02:31:52;-6.90;99.90
10885;DHT22;5495;53.252;10.390;2022-12-18T02:34:22;-7.10;99.90
10885;DHT22;5495;53.252;10.390;2022-12-18T02:36:51;-7.00;99.90
10885;DHT22;5495;53.252;10.390;2022-12-18T02:39:21;-7.00;99.90
10885;DHT22;5495;53.252;10.390;2022-12-18T02:41:52;-7.10;99.90
10885;DHT22;5495;53.252;10.390;2022-12-18T02:44:18;-6.90;99.90
10885;DHT22;5495;53.252;10.390;2022-12-18T02:46:48;-7.10;99.90
10885;DHT22;5495;53.252;10.390;2022-12-18T02:49:26;-7.10;99.90
10885;DHT22;5495;53.252;10.390;2022-12-18T02:52:05;-6.70;99.90
10885;DHT22;5495;53.252;10.390;2022-12-18T02:54:52;-7.10;99.90
10885;DHT22;5495;53.252;10.390;2022-12-18T02:57:29;-7.10;99.90
10885;DHT22;5495;53.252;10.390;2022-12-18T03:00:00;-7.10;99.90
10885;DHT22;5495;53.252;10.390;2022-12-18T03:02:36;-7.10;99.90
10885;DHT22;5495;53.252;10.390;2022-12-18T03:05:12;-7.10;99.90
10885;DHT22;5495;53.252;10.390;2022-12-18T03:07:46;-5.80;99.90
10885;DHT22;5495;53.252;10.390;2022-12-18T03:10:19;-8.10;99.90
10885;DHT22;5495;53.252;10.390;2022-12-18T03:12:53;-8.40;99.90
10885;DHT22;5495;53.252;10.390;2022-12-18T03:15:31;-8.40;99.90
10885;DHT22;5495;53.252;10.390;2022-12-18T03:18:11;-7.10;99.90
10885;DHT22;5495;53.252;10.390;2022-12-18T03:20:41;-7.10;99.90
10885;DHT22;5495;53.252;10.390;2022-12-18T03:23:13;-7.40;99.90
10885;DHT22;5495;53.252;10.390;2022-12-18T03:25:42;-7.00;99.90
10885;DHT22;5495;53.252;10.390;2022-12-18T03:28:14;-7.10;99.90
10885;DHT22;5495;53.252;10.390;2022-12-18T03:30:44;-7.00;99.90
10885;DHT22;5495;53.252;10.390;2022-12-18T03:33:18;-7.50;99.90
10885;DHT22;5495;53.252;10.390;2022-12-18T03:35:46;-8.50;99.90
10885;DHT22;5495;53.252;10.390;2022-12-18T03:38:13;-7.20;99.90
10885;DHT22;5495;53.252;10.390;2022-12-18T03:40:53;-7.20;99.90
10885;DHT22;5495;53.252;10.390;2022-12-18T03:43:32;-7.20;99.90
10885;DHT22;5495;53.252;10.390;2022-12-18T03:46:05;-8.20;99.90
10885;DHT22;5495;53.252;10.390;2022-12-18T03:48:37;-7.20;99.90
10885;DHT22;5495;53.252;10.390;2022-12-18T03:51:07;-6.70;99.90
10885;DHT22;5495;53.252;10.390;2022-12-18T03:53:41;-7.20;99.90
10885;DHT22;5495;53.252;10.390;2022-12-18T03:56:11;-7.20;99.90
10885;DHT22;5495;53.252;10.390;2022-12-18T03:58:42;-7.20;99.90
10885;DHT22;5495;53.252;10.390;2022-12-18T04:01:12;-7.20;99.90
10885;DHT22;5495;53.252;10.390;2022-12-18T04:03:41;-7.30;99.90
10885;DHT22;5495;53.252;10.390;2022-12-18T04:06:10;-7.10;99.90
10885;DHT22;5495;53.252;10.390;2022-12-18T04:08:37;-7.80;99.90
10885;DHT22;5495;53.252;10.390;2022-12-18T04:11:05;-7.20;99.90
10885;DHT22;5495;53.252;10.390;2022-12-18T04:13:35;-7.30;99.90
10885;DHT22;5495;53.252;10.390;2022-12-18T04:16:03;-7.80;99.90
10885;DHT22;5495;53.252;10.390;2022-12-18T04:18:30;-7.40;99.90
10885;DHT22;5495;53.252;10.390;2022-12-18T04:21:01;-7.40;99.90
10885;DHT22;5495;53.252;10.390;2022-12-18T04:23:28;-7.00;99.90
10885;DHT22;5495;53.252;10.390;2022-12-18T04:25:56;-8.70;99.90
10885;DHT22;5495;53.252;10.390;2022-12-18T04:28:24;-7.50;99.90
10885;DHT22;5495;53.252;10.390;2022-12-18T04:30:52;-7.50;99.90
10885;DHT22;5495;53.252;10.390;2022-12-18T04:33:20;-8.00;99.90
10885;DHT22;5495;53.252;10.390;2022-12-18T04:35:46;-7.10;99.90
10885;DHT22;5495;53.252;10.390;2022-12-18T04:38:13;-7.30;99.90
10885;DHT22;5495;53.252;10.390;2022-12-18T04:40:40;-7.90;99.90
10885;DHT22;5495;53.252;10.390;2022-12-18T04:43:07;-7.30;99.90
10885;DHT22;5495;53.252;10.390;2022-12-18T04:45:34;-7.00;99.90
10885;DHT22;5495;53.252;10.390;2022-12-18T04:48:01;-7.10;99.90
10885;DHT22;5495;53.252;10.390;2022-12-18T04:50:29;-7.40;99.90
10885;DHT22;5495;53.252;10.390;2022-12-18T04:52:57;-6.80;99.90
10885;DHT22;5495;53.252;10.390;2022-12-18T04:55:23;-6.70;99.90
10885;DHT22;5495;53.252;10.390;2022-12-18T04:57:50;-6.80;99.90
10885;DHT22;5495;53.252;10.390;2022-12-18T05:00:20;-6.60;99.90
10885;DHT22;5495;53.252;10.390;2022-12-18T05:02:47;-7.40;99.90
10885;DHT22;5495;53.252;10.390;2022-12-18T05:05:14;-6.40;99.90
10885;DHT22;5495;53.252;10.390;2022-12-18T05:07:42;-6.40;99.90
10885;DHT22;5495;53.252;10.390;2022-12-18T05:10:09;-6.30;99.90
10885;DHT22;5495;53.252;10.390;2022-12-18T05:12:35;-6.20;99.90
10885;DHT22;5495;53.252;10.390;2022-12-18T05:15:23;-7.40;99.90
10885;DHT22;5495;53.252;10.390;2022-12-18T05:17:50;-6.40;99.90
10885;DHT22;5495;53.252;10.390;2022-12-18T05:20:17;-6.50;99.90
10885;DHT22;5495;53.252;10.390;2022-12-18T05:22:45;-6.90;99.90
10885;DHT22;5495;53.252;10.390;2022-12-18T05:25:12;-7.00;99.90
10885;DHT22;5495;53.252;10.390;2022-12-18T05:27:41;-7.80;99.90
10885;DHT22;5495;53.252;10.390;2022-12-18T05:30:08;-7.20;99.90
10885;DHT22;5495;53.252;10.390;2022-12-18T05:32:35;-7.60;99.90
10885;DHT22;5495;53.252;10.390;2022-12-18T05:35:03;-7.40;99.90
10885;DHT22;5495;53.252;10.390;2022-12-18T05:37:30;-7.40;99.90
10885;DHT22;5495;53.252;10.390;2022-12-18T05:40:00;-7.40;99.90
10885;DHT22;5495;53.252;10.390;2022-12-18T05:42:30;-8.00;99.90
10885;DHT22;5495;53.252;10.390;2022-12-18T05:45:02;-7.60;99.90
10885;DHT22;5495;53.252;10.390;2022-12-18T05:47:29;-7.70;99.90
10885;DHT22;5495;53.252;10.390;2022-12-18T05:49:55;-7.60;99.90
10885;DHT22;5495;53.252;10.390;2022-12-18T05:52:22;-7.60;99.90
10885;DHT22;5495;53.252;10.390;2022-12-18T05:54:49;-7.60;99.90
10885;DHT22;5495;53.252;10.390;2022-12-18T05:57:17;-7.70;99.90
10885;DHT22;5495;53.252;10.390;2022-12-18T05:59:45;-7.90;99.90
10885;DHT22;5495;53.252;10.390;2022-12-18T06:02:14;-8.60;99.90
10885;DHT22;5495;53.252;10.390;2022-12-18T06:04:41;-7.70;99.90
10885;DHT22;5495;53.252;10.390;2022-12-18T06:07:08;-7.70;99.90
10885;DHT22;5495;53.252;10.390;2022-12-18T06:09:34;-7.80;99.90
10885;DHT22;5495;53.252;10.390;2022-12-18T06:12:01;-7.30;99.90
10885;DHT22;5495;53.252;10.390;2022-12-18T06:14:28;-7.40;99.90
10885;DHT22;5495;53.252;10.390;2022-12-18T06:16:55;-8.00;99.90
10885;DHT22;5495;53.252;10.390;2022-12-18T06:19:25;-7.80;99.90
10885;DHT22;5495;53.252;10.390;2022-12-18T06:21:51;-6.90;99.90
10885;DHT22;5495;53.252;10.390;2022-12-18T06:24:18;-7.40;99.90
10885;DHT22;5495;53.252;10.390;2022-12-18T06:26:45;-7.40;99.90
10885;DHT22;5495;53.252;10.390;2022-12-18T06:29:15;-7.80;99.90
10885;DHT22;5495;53.252;10.390;2022-12-18T06:31:44;-7.00;99.90
10885;DHT22;5495;53.252;10.390;2022-12-18T06:34:11;-7.20;99.90
10885;DHT22;5495;53.252;10.390;2022-12-18T06:36:38;-7.20;99.90
10885;DHT22;5495;53.252;10.390;2022-12-18T06:39:04;-7.20;99.90
10885;DHT22;5495;53.252;10.390;2022-12-18T06:41:31;-7.90;99.90
10885;DHT22;5495;53.252;10.390;2022-12-18T06:44:00;-7.50;99.90
10885;DHT22;5495;53.252;10.390;2022-12-18T06:46:34;-7.50;99.90
10885;DHT22;5495;53.252;10.390;2022-12-18T06:49:04;-7.50;99.90
10885;DHT22;5495;53.252;10.390;2022-12-18T06:51:38;-7.50;99.90
10885;DHT22;5495;53.252;10.390;2022-12-18T06:54:13;-7.50;99.90
10885;DHT22;5495;53.252;10.390;2022-12-18T06:56:45;-7.50;99.90
10885;DHT22;5495;53.252;10.390;2022-12-18T06:59:14;-7.50;99.90
10885;DHT22;5495;53.252;10.390;2022-12-18T07:01:45;-7.60;99.90
10885;DHT22;5495;53.252;10.390;2022-12-18T07:04:27;-7.60;99.90
10885;DHT22;5495;53.252;10.390;2022-12-18T07:06:59;-7.60;99.90
10885;DHT22;5495;53.252;10.390;2022-12-18T07:09:31;-4.40;99.90
10885;DHT22;5495;53.252;10.390;2022-12-18T07:12:01;-7.70;99.90
10885;DHT22;5495;53.252;10.390;2022-12-18T07:14:32;-7.70;99.90
10885;DHT22;5495;53.252;10.390;2022-12-18T07:16:59;-7.70;99.90
10885;DHT22;5495;53.252;10.390;2022-12-18T07:19:41;-7.70;99.90
10885;DHT22;5495;53.252;10.390;2022-12-18T07:22:16;-7.80;99.90
10885;DHT22;5495;53.252;10.390;2022-12-18T07:24:45;-7.60;99.90
10885;DHT22;5495;53.252;10.390;2022-12-18T07:27:16;-7.50;99.90
10885;DHT22;5495;53.252;10.390;2022-12-18T07:29:48;-7.70;99.90
10885;DHT22;5495;53.252;10.390;2022-12-18T07:32:15;-7.50;99.90
10885;DHT22;5495;53.252;10.390;2022-12-18T07:34:46;-7.60;99.90
10885;DHT22;5495;53.252;10.390;2022-12-18T07:37:26;-7.60;99.90
10885;DHT22;5495;53.252;10.390;2022-12-18T07:39:53;-7.60;99.90
10885;DHT22;5495;53.252;10.390;2022-12-18T07:42:33;-7.60;99.90
10885;DHT22;5495;53.252;10.390;2022-12-18T07:47:35;-7.60;99.90
10885;DHT22;5495;53.252;10.390;2022-12-18T07:50:08;-6.80;99.90
10885;DHT22;5495;53.252;10.390;2022-12-18T07:52:37;-7.50;99.90
10885;DHT22;5495;53.252;10.390;2022-12-18T07:55:05;-7.50;99.90
10885;DHT22;5495;53.252;10.390;2022-12-18T07:57:31;-7.60;99.90
10885;DHT22;5495;53.252;10.390;2022-12-18T07:59:58;-7.40;99.90
10885;DHT22;5495;53.252;10.390;2022-12-18T08:02:30;-7.40;99.90
10885;DHT22;5495;53.252;10.390;2022-12-18T08:04:57;-7.20;99.90
10885;DHT22;5495;53.252;10.390;2022-12-18T08:07:25;-6.90;99.90
10885;DHT22;5495;53.252;10.390;2022-12-18T08:09:52;-6.80;99.90
10885;DHT22;5495;53.252;10.390;2022-12-18T08:12:19;-6.80;99.90
10885;DHT22;5495;53.252;10.390;2022-12-18T08:14:46;-6.80;99.90
10885;DHT22;5495;53.252;10.390;2022-12-18T08:17:26;-6.70;99.90
10885;DHT22;5495;53.252;10.390;2022-12-18T08:20:10;-6.70;99.90
10885;DHT22;5495;53.252;10.390;2022-12-18T08:22:38;-6.50;99.90
10885;DHT22;5495;53.252;10.390;2022-12-18T08:25:08;-6.50;99.90
10885;DHT22;5495;53.252;10.390;2022-12-18T08:27:35;-6.60;99.90
10885;DHT22;5495;53.252;10.390;2022-12-18T08:30:02;-6.40;99.90
10885;DHT22;5495;53.252;10.390;2022-12-18T08:32:29;-6.90;99.90
10885;DHT22;5495;53.252;10.390;2022-12-18T08:34:55;-6.40;99.90
10885;DHT22;5495;53.252;10.390;2022-12-18T08:37:22;-6.40;99.90
10885;DHT22;5495;53.252;10.390;2022-12-18T08:39:49;-6.30;99.90
10885;DHT22;5495;53.252;10.390;2022-12-18T08:42:17;-6.30;99.90
10885;DHT22;5495;53.252;10.390;2022-12-18T08:45:05;-6.10;99.90
10885;DHT22;5495;53.252;10.390;2022-12-18T08:47:32;-4.50;99.90
10885;DHT22;5495;53.252;10.390;2022-12-18T08:49:59;-5.90;99.90
10885;DHT22;5495;53.252;10.390;2022-12-18T08:52:26;-5.70;99.90
10885;DHT22;5495;53.252;10.390;2022-12-18T08:54:54;-5.80;99.90
10885;DHT22;5495;53.252;10.390;2022-12-18T08:57:21;-5.20;99.90
10885;DHT22;5495;53.252;10.390;2022-12-18T08:59:48;-5.60;99.90
10885;DHT22;5495;53.252;10.390;2022-12-18T09:02:15;-5.60;99.90
10885;DHT22;5495;53.252;10.390;2022-12-18T09:04:41;-5.50;99.90
10885;DHT22;5495;53.252;10.390;2022-12-18T09:07:13;-5.30;99.90
10885;DHT22;5495;53.252;10.390;2022-12-18T09:09:45;-5.30;99.90
10885;DHT22;5495;53.252;10.390;2022-12-18T09:12:17;-5.20;99.90
10885;DHT22;5495;53.252;10.390;2022-12-18T09:14:46;-5.20;99.90
10885;DHT22;5495;53.252;10.390;2022-12-18T09:17:26;-5.00;99.90
10885;DHT22;5495;53.252;10.390;2022-12-18T09:20:04;-4.90;99.90
10885;DHT22;5495;53.252;10.390;2022-12-18T09:22:31;-6.00;99.90
10885;DHT22;5495;53.252;10.390;2022-12-18T09:25:01;-4.60;99.90
10885;DHT22;5495;53.252;10.390;2022-12-18T09:30:37;-5.90;99.90
10885;DHT22;5495;53.252;10.390;2022-12-18T09:33:05;-5.30;99.90
10885;DHT22;5495;53.252;10.390;2022-12-18T09:35:32;-4.30;99.90
10885;DHT22;5495;53.252;10.390;2022-12-18T09:37:58;-4.20;99.90
10885;DHT22;5495;53.252;10.390;2022-12-18T09:40:33;-4.10;99.90
10885;DHT22;5495;53.252;10.390;2022-12-18T09:43:04;-5.30;99.90
10885;DHT22;5495;53.252;10.390;2022-12-18T09:45:38;-3.90;99.90
10885;DHT22;5495;53.252;10.390;2022-12-18T09:48:06;-1.40;99.90
10885;DHT22;5495;53.252;10.390;2022-12-18T09:50:39;-3.60;99.90
10885;DHT22;5495;53.252;10.390;2022-12-18T09:53:16;-3.50;99.90
10885;DHT22;5495;53.252;10.390;2022-12-18T09:55:49;-3.40;99.90
10885;DHT22;5495;53.252;10.390;2022-12-18T09:58:26;-3.40;99.90
10885;DHT22;5495;53.252;10.390;2022-12-18T10:00:57;-4.60;99.90
10885;DHT22;5495;53.252;10.390;2022-12-18T10:03:25;-3.30;99.90
10885;DHT22;5495;53.252;10.390;2022-12-18T10:05:59;-3.20;99.90
10885;DHT22;5495;53.252;10.390;2022-12-18T10:08:36;-3.80;99.90
10885;DHT22;5495;53.252;10.390;2022-12-18T10:11:21;-3.30;99.90
10885;DHT22;5495;53.252;10.390;2022-12-18T10:13:53;-2.30;99.90
10885;DHT22;5495;53.252;10.390;2022-12-18T10:16:27;-2.60;99.90
10885;DHT22;5495;53.252;10.390;2022-12-18T10:19:07;-3.50;99.90
10885;DHT22;5495;53.252;10.390;2022-12-18T10:21:42;-2.30;99.90
10885;DHT22;5495;53.252;10.390;2022-12-18T10:24:26;-2.20;99.90
10885;DHT22;5495;53.252;10.390;2022-12-18T10:27:09;-3.10;99.90
10885;DHT22;5495;53.252;10.390;2022-12-18T10:29:48;-1.60;99.90
10885;DHT22;5495;53.252;10.390;2022-12-18T10:32:18;-1.10;99.90
10885;DHT22;5495;53.252;10.390;2022-12-18T10:34:46;-1.40;99.90
10885;DHT22;5495;53.252;10.390;2022-12-18T10:37:17;-0.80;99.90
10885;DHT22;5495;53.252;10.390;2022-12-18T10:40:12;1.60;99.90
10885;DHT22;5495;53.252;10.390;2022-12-18T10:43:04;0.30;99.90
10885;DHT22;5495;53.252;10.390;2022-12-18T10:45:32;1.00;99.80
10885;DHT22;5495;53.252;10.390;2022-12-18T10:48:20;-0.80;99.90
10885;DHT22;5495;53.252;10.390;2022-12-18T10:50:50;0.70;99.20
10885;DHT22;5495;53.252;10.390;2022-12-18T10:53:20;1.50;98.20
10885;DHT22;5495;53.252;10.390;2022-12-18T10:55:48;1.90;97.20
10885;DHT22;5495;53.252;10.390;2022-12-18T10:58:24;2.50;97.60
10885;DHT22;5495;53.252;10.390;2022-12-18T11:01:08;2.80;96.60
10885;DHT22;5495;53.252;10.390;2022-12-18T11:03:40;-0.30;94.50
10885;DHT22;5495;53.252;10.390;2022-12-18T11:06:28;2.30;96.30
10885;DHT22;5495;53.252;10.390;2022-12-18T11:09:17;1.20;96.00
10885;DHT22;5495;53.252;10.390;2022-12-18T11:11:48;3.00;95.20
10885;DHT22;5495;53.252;10.390;2022-12-18T11:14:22;2.60;94.70
10885;DHT22;5495;53.252;10.390;2022-12-18T11:16:54;3.70;95.30
10885;DHT22;5495;53.252;10.390;2022-12-18T11:19:30;4.60;97.40
10885;DHT22;5495;53.252;10.390;2022-12-18T11:21:58;4.40;93.10
10885;DHT22;5495;53.252;10.390;2022-12-18T11:24:29;3.60;93.80
10885;DHT22;5495;53.252;10.390;2022-12-18T11:26:58;3.90;93.30
10885;DHT22;5495;53.252;10.390;2022-12-18T11:29:33;3.50;93.50
10885;DHT22;5495;53.252;10.390;2022-12-18T11:32:25;3.30;93.70
10885;DHT22;5495;53.252;10.390;2022-12-18T11:34:59;2.80;93.50
10885;DHT22;5495;53.252;10.390;2022-12-18T11:37:28;2.00;94.30
10885;DHT22;5495;53.252;10.390;2022-12-18T11:39:59;3.00;95.30
10885;DHT22;5495;53.252;10.390;2022-12-18T11:42:35;3.00;94.40
10885;DHT22;5495;53.252;10.390;2022-12-18T11:45:26;2.80;94.80
10885;DHT22;5495;53.252;10.390;2022-12-18T11:47:57;2.20;94.70
10885;DHT22;5495;53.252;10.390;2022-12-18T11:50:30;1.70;95.40
10885;DHT22;5495;53.252;10.390;2022-12-18T11:52:58;1.50;95.50
10885;DHT22;5495;53.252;10.390;2022-12-18T11:55:39;1.30;96.70
10885;DHT22;5495;53.252;10.390;2022-12-18T11:58:14;1.20;96.40
10885;DHT22;5495;53.252;10.390;2022-12-18T12:00:49;0.70;96.70
10885;DHT22;5495;53.252;10.390;2022-12-18T12:03:37;0.40;97.10
10885;DHT22;5495;53.252;10.390;2022-12-18T12:06:11;-0.30;97.60
10885;DHT22;5495;53.252;10.390;2022-12-18T12:08:52;-0.80;98.90
10885;DHT22;5495;53.252;10.390;2022-12-18T12:11:27;-1.00;99.70
10885;DHT22;5495;53.252;10.390;2022-12-18T12:16:54;-1.30;99.90
10885;DHT22;5495;53.252;10.390;2022-12-18T12:19:34;-1.50;99.90
10885;DHT22;5495;53.252;10.390;2022-12-18T12:22:09;-1.60;99.90
10885;DHT22;5495;53.252;10.390;2022-12-18T12:24:47;-1.70;99.90
10885;DHT22;5495;53.252;10.390;2022-12-18T12:27:22;-1.90;99.90
10885;DHT22;5495;53.252;10.390;2022-12-18T12:30:01;-1.90;99.90
10885;DHT22;5495;53.252;10.390;2022-12-18T12:32:40;-2.00;99.90
10885;DHT22;5495;53.252;10.390;2022-12-18T12:35:18;-2.10;99.90
10885;DHT22;5495;53.252;10.390;2022-12-18T12:37:57;-2.10;99.90
10885;DHT22;5495;53.252;10.390;2022-12-18T12:40:27;-2.20;99.90
10885;DHT22;5495;53.252;10.390;2022-12-18T12:42:58;-2.20;99.90
10885;DHT22;5495;53.252;10.390;2022-12-18T12:45:45;-2.20;99.90
10885;DHT22;5495;53.252;10.390;2022-12-18T12:48:19;-2.40;99.90
10885;DHT22;5495;53.252;10.390;2022-12-18T12:50:48;-2.40;99.90
10885;DHT22;5495;53.252;10.390;2022-12-18T12:53:23;-2.40;99.90
10885;DHT22;5495;53.252;10.390;2022-12-18T12:55:57;-2.30;99.90
10885;DHT22;5495;53.252;10.390;2022-12-18T12:58:33;-2.60;99.90
10885;DHT22;5495;53.252;10.390;2022-12-18T13:01:10;-2.20;99.90
10885;DHT22;5495;53.252;10.390;2022-12-18T13:03:52;-2.30;99.90
10885;DHT22;5495;53.252;10.390;2022-12-18T13:06:32;-2.30;99.90
10885;DHT22;5495;53.252;10.390;2022-12-18T13:09:03;-2.30;99.90
10885;DHT22;5495;53.252;10.390;2022-12-18T13:11:36;-2.30;99.90
10885;DHT22;5495;53.252;10.390;2022-12-18T13:14:26;-2.30;99.90
10885;DHT22;5495;53.252;10.390;2022-12-18T13:17:28;-2.40;99.90
10885;DHT22;5495;53.252;10.390;2022-12-18T13:20:07;-2.50;99.90
10885;DHT22;5495;53.252;10.390;2022-12-18T13:22:37;-2.30;99.90
10885;DHT22;5495;53.252;10.390;2022-12-18T13:25:34;-2.50;99.90
10885;DHT22;5495;53.252;10.390;2022-12-18T13:28:14;-2.40;99.90
10885;DHT22;5495;53.252;10.390;2022-12-18T13:30:48;-2.40;99.90
10885;DHT22;5495;53.252;10.390;2022-12-18T13:33:49;-2.50;99.90
10885;DHT22;5495;53.252;10.390;2022-12-18T13:36:32;-2.50;99.90
10885;DHT22;5495;53.252;10.390;2022-12-18T13:42:39;-2.40;99.90
10885;DHT22;5495;53.252;10.390;2022-12-18T13:45:45;-2.50;99.90
10885;DHT22;5495;53.252;10.390;2022-12-18T13:48:24;-2.40;99.90
10885;DHT22;5495;53.252;10.390;2022-12-18T13:50:56;-2.50;99.90
10885;DHT22;5495;53.252;10.390;2022-12-18T13:53:27;-2.50;99.90
10885;DHT22;5495;53.252;10.390;2022-12-18T13:55:57;-2.70;99.90
10885;DHT22;5495;53.252;10.390;2022-12-18T13:58:25;-2.80;99.90
10885;DHT22;5495;53.252;10.390;2022-12-18T14:00:53;-2.80;99.90
10885;DHT22;5495;53.252;10.390;2022-12-18T14:03:22;-2.80;99.90
10885;DHT22;5495;53.252;10.390;2022-12-18T14:05:54;-2.80;99.90
10885;DHT22;5495;53.252;10.390;2022-12-18T14:08:21;-2.90;99.90
10885;DHT22;5495;53.252;10.390;2022-12-18T14:10:50;-2.70;99.90
10885;DHT22;5495;53.252;10.390;2022-12-18T14:13:24;-2.80;99.90
10885;DHT22;5495;53.252;10.390;2022-12-18T14:15:54;-2.80;99.90
10885;DHT22;5495;53.252;10.390;2022-12-18T14:18:24;-2.90;99.90
10885;DHT22;5495;53.252;10.390;2022-12-18T14:20:53;-2.90;99.90
10885;DHT22;5495;53.252;10.390;2022-12-18T14:23:32;-2.90;99.90
10885;DHT22;5495;53.252;10.390;2022-12-18T14:26:00;-2.90;99.90
10885;DHT22;5495;53.252;10.390;2022-12-18T14:28:43;-3.00;99.90
10885;DHT22;5495;53.252;10.390;2022-12-18T14:31:17;-3.00;99.90
10885;DHT22;5495;53.252;10.390;2022-12-18T14:33:45;-3.00;99.90
10885;DHT22;5495;53.252;10.390;2022-12-18T14:36:16;-3.00;99.90
10885;DHT22;5495;53.252;10.390;2022-12-18T14:38:47;-3.00;99.90
10885;DHT22;5495;53.252;10.390;2022-12-18T14:41:15;-3.00;99.90
10885;DHT22;5495;53.252;10.390;2022-12-18T14:43:46;-2.90;99.90
10885;DHT22;5495;53.252;10.390;2022-12-18T14:46:34;-3.00;99.90
10885;DHT22;5495;53.252;10.390;2022-12-18T14:49:04;-2.60;99.90
10885;DHT22;5495;53.252;10.390;2022-12-18T14:51:34;-3.00;99.90
10885;DHT22;5495;53.252;10.390;2022-12-18T14:54:16;-3.00;99.90
10885;DHT22;5495;53.252;10.390;2022-12-18T14:56:49;-3.00;99.90
10885;DHT22;5495;53.252;10.390;2022-12-18T14:59:21;-3.10;99.90
10885;DHT22;5495;53.252;10.390;2022-12-18T15:01:59;-3.20;99.90
10885;DHT22;5495;53.252;10.390;2022-12-18T15:04:29;-3.10;99.90
10885;DHT22;5495;53.252;10.390;2022-12-18T15:07:13;-3.20;99.90
10885;DHT22;5495;53.252;10.390;2022-12-18T15:09:44;-3.50;99.90
10885;DHT22;5495;53.252;10.390;2022-12-18T15:12:35;-3.10;99.90
10885;DHT22;5495;53.252;10.390;2022-12-18T15:18:13;-3.10;99.90
10885;DHT22;5495;53.252;10.390;2022-12-18T15:20:44;-3.10;99.90
10885;DHT22;5495;53.252;10.390;2022-12-18T15:23:19;-3.20;99.90
10885;DHT22;5495;53.252;10.390;2022-12-18T15:25:57;-3.10;99.90
10885;DHT22;5495;53.252;10.390;2022-12-18T15:28:37;-3.00;99.90
10885;DHT22;5495;53.252;10.390;2022-12-18T15:31:29;-3.20;99.90
10885;DHT22;5495;53.252;10.390;2022-12-18T15:34:13;-3.70;99.90
10885;DHT22;5495;53.252;10.390;2022-12-18T15:36:49;-3.30;99.90
10885;DHT22;5495;53.252;10.390;2022-12-18T15:39:19;-3.10;99.90
10885;DHT22;5495;53.252;10.390;2022-12-18T15:41:46;-4.00;99.90
10885;DHT22;5495;53.252;10.390;2022-12-18T15:44:27;-3.30;99.90
10885;DHT22;5495;53.252;10.390;2022-12-18T15:47:17;-3.20;99.90
10885;DHT22;5495;53.252;10.390;2022-12-18T15:49:56;-3.30;99.90
10885;DHT22;5495;53.252;10.390;2022-12-18T15:52:41;-3.20;99.90
10885;DHT22;5495;53.252;10.390;2022-12-18T15:55:23;-2.00;99.90
10885;DHT22;5495;53.252;10.390;2022-12-18T15:58:11;-3.30;99.90
10885;DHT22;5495;53.252;10.390;2022-12-18T16:00:42;-3.20;99.90
10885;DHT22;5495;53.252;10.390;2022-12-18T16:03:08;-3.30;99.90
10885;DHT22;5495;53.252;10.390;2022-12-18T16:05:43;-3.10;99.90
10885;DHT22;5495;53.252;10.390;2022-12-18T16:08:13;-3.10;99.90
10885;DHT22;5495;53.252;10.390;2022-12-18T16:10:48;-3.10;99.90
10885;DHT22;5495;53.252;10.390;2022-12-18T16:13:16;-3.00;99.90
10885;DHT22;5495;53.252;10.390;2022-12-18T16:15:45;-3.00;99.90
10885;DHT22;5495;53.252;10.390;2022-12-18T16:18:14;-2.80;99.90
10885;DHT22;5495;53.252;10.390;2022-12-18T16:20:42;-0.10;99.90
10885;DHT22;5495;53.252;10.390;2022-12-18T16:23:08;-3.10;99.90
10885;DHT22;5495;53.252;10.390;2022-12-18T16:25:36;-3.10;99.90